createdAt,value
2022-10-12T04:03:07.284Z,3.40
2022-10-12T04:06:35.727Z,3.50
2022-10-12T04:10:04.013Z,3.40
2022-10-12T04:13:30.805Z,3.50
2022-10-12T04:17:03.994Z,3.40
2022-10-12T04:20:30.713Z,3.30
2022-10-12T04:23:58.748Z,3.50
2022-10-12T04:27:25.748Z,3.80
2022-10-12T04:30:53.153Z,3.80
2022-10-12T04:34:19.937Z,3.80
2022-10-12T04:37:46.629Z,3.90
2022-10-12T04:41:15.169Z,4.40
2022-10-12T04:44:41.841Z,4.10
2022-10-12T04:48:08.557Z,4.10
2022-10-12T04:51:35.389Z,3.80
2022-10-12T04:55:02.075Z,3.70
2022-10-12T04:58:30.229Z,3.80
2022-10-12T05:01:57.023Z,4.20
2022-10-12T05:05:30.627Z,4.10
2022-10-12T05:08:57.342Z,4.00
2022-10-12T05:12:24.029Z,4.20
2022-10-12T05:15:52.219Z,4.20
2022-10-12T05:18:57.868Z,4.00
2022-10-12T05:22:24.586Z,4.10
2022-10-12T05:25:51.333Z,4.10
2022-10-12T05:29:18.305Z,4.30
2022-10-12T05:32:46.353Z,4.30
2022-10-12T05:36:11.526Z,4.00
2022-10-12T05:39:30.409Z,3.90
2022-10-12T05:42:57.092Z,4.20
2022-10-12T05:46:23.910Z,4.10
2022-10-12T05:49:52.337Z,4.40
2022-10-12T05:53:19.439Z,4.80
2022-10-12T05:56:52.715Z,4.70
2022-10-12T06:00:19.607Z,4.40
2022-10-12T06:03:46.302Z,4.80
2022-10-12T06:07:14.416Z,5.00
2022-10-12T06:10:45.955Z,4.90
2022-10-12T06:14:13.008Z,4.70
2022-10-12T06:17:39.736Z,4.30
2022-10-12T06:21:32.491Z,4.70
2022-10-12T06:24:55.689Z,4.60
2022-10-12T06:28:22.627Z,4.60
2022-10-12T06:31:57.181Z,4.50
2022-10-12T06:35:23.858Z,4.90
2022-10-12T06:38:51.194Z,4.90
2022-10-12T06:42:19.286Z,4.90
2022-10-12T06:45:45.992Z,4.20
2022-10-12T06:49:12.809Z,4.60
2022-10-12T06:52:39.993Z,4.60
2022-10-12T06:56:10.374Z,4.20
2022-10-12T06:59:39.128Z,4.30
2022-10-12T07:03:06.228Z,4.40
2022-10-12T07:06:33.984Z,4.60
2022-10-12T07:10:01.038Z,4.60
2022-10-12T07:13:28.095Z,4.60
2022-10-12T07:16:56.149Z,4.70
2022-10-12T07:20:22.972Z,4.80
2022-10-12T07:23:49.679Z,4.90
2022-10-12T07:27:16.722Z,5.20
2022-10-12T07:30:43.511Z,5.80
2022-10-12T07:34:11.790Z,5.90
2022-10-12T07:37:39.182Z,5.90
2022-10-12T07:41:07.608Z,6.30
2022-10-12T07:44:34.474Z,6.50
2022-10-12T07:48:01.241Z,6.50
2022-10-12T07:51:29.461Z,6.10
2022-10-12T07:54:56.407Z,6.70
2022-10-12T07:58:23.114Z,7.20
2022-10-12T08:01:49.916Z,7.40
2022-10-12T08:05:18.034Z,7.30
2022-10-12T08:08:46.374Z,7.00
2022-10-12T08:12:13.629Z,7.10
2022-10-12T08:15:40.466Z,7.30
2022-10-12T08:19:07.293Z,7.30
2022-10-12T08:22:34.082Z,7.60
2022-10-12T08:26:02.142Z,7.80
2022-10-12T08:29:29.080Z,8.20
2022-10-12T08:32:55.797Z,8.20
2022-10-12T08:36:23.025Z,8.30
2022-10-12T08:39:51.553Z,8.50
2022-10-12T08:43:39.006Z,8.70
2022-10-12T08:47:10.878Z,8.80
2022-10-12T08:50:41.427Z,9.00
2022-10-12T08:54:14.451Z,9.30
2022-10-12T08:57:47.613Z,9.30
2022-10-12T09:01:23.041Z,9.50
2022-10-12T09:05:05.390Z,9.60
2022-10-12T09:08:42.599Z,9.90
2022-10-12T09:12:34.889Z,9.80
2022-10-12T09:16:07.540Z,10.00
2022-10-12T09:19:42.179Z,10.30
2022-10-12T09:23:22.177Z,10.30
2022-10-12T09:26:51.409Z,10.40
2022-10-12T09:30:24.869Z,10.60
2022-10-12T09:34:14.377Z,10.50
2022-10-12T09:37:45.417Z,10.60
2022-10-12T09:41:21.791Z,10.50
2022-10-12T09:44:58.412Z,10.60
2022-10-12T09:48:28.441Z,10.90
2022-10-12T09:52:01.689Z,10.90
2022-10-12T09:55:28.646Z,11.20
2022-10-12T09:58:59.837Z,11.30
2022-10-12T10:02:29.645Z,11.50
2022-10-12T10:06:03.924Z,11.60
2022-10-12T10:09:39.781Z,11.70
2022-10-12T10:13:24.036Z,12.00
2022-10-12T10:16:54.650Z,12.10
2022-10-12T10:20:27.439Z,12.30
2022-10-12T10:23:56.808Z,12.50
2022-10-12T10:27:34.247Z,12.60
2022-10-12T10:31:22.818Z,13.00
2022-10-12T10:35:21.102Z,13.20
2022-10-12T10:38:56.990Z,13.30
2022-10-12T10:42:28.534Z,13.60
2022-10-12T10:46:01.962Z,13.70
2022-10-12T10:49:36.528Z,13.90
2022-10-12T10:53:06.922Z,14.00
2022-10-12T10:56:46.610Z,14.10
2022-10-12T11:00:37.863Z,14.30
2022-10-12T11:04:09.922Z,14.40
2022-10-12T11:07:49.207Z,14.60
2022-10-12T11:11:28.170Z,14.70
2022-10-12T11:15:02.984Z,15.10
2022-10-12T11:18:37.599Z,14.90
2022-10-12T11:22:16.415Z,15.10
2022-10-12T11:25:54.036Z,15.30
2022-10-12T11:29:30.041Z,15.50
2022-10-12T11:33:04.218Z,15.90
2022-10-12T11:36:41.847Z,15.90
2022-10-12T11:41:02.586Z,16.20
2022-10-12T11:44:30.232Z,16.40
2022-10-12T11:48:03.791Z,16.50
2022-10-12T11:51:33.073Z,16.50
2022-10-12T11:55:10.012Z,16.60
2022-10-12T11:59:01.142Z,16.80
2022-10-12T12:02:53.573Z,16.80
2022-10-12T12:06:39.253Z,16.90
2022-10-12T12:10:41.170Z,17.30
2022-10-12T12:14:36.939Z,17.20
2022-10-12T12:18:15.053Z,17.20
2022-10-12T12:22:21.680Z,17.10
2022-10-12T12:26:06.301Z,17.20
2022-10-12T12:29:35.071Z,17.10
2022-10-12T12:33:03.354Z,17.00
2022-10-12T12:36:35.754Z,17.20
2022-10-12T12:40:04.908Z,17.10
2022-10-12T12:43:52.562Z,17.10
2022-10-12T12:51:38.232Z,17.10
2022-10-12T12:55:19.715Z,17.30
2022-10-12T12:59:25.928Z,17.50
2022-10-12T13:03:27.447Z,17.50
2022-10-12T13:07:43.230Z,17.80
2022-10-12T13:11:45.845Z,17.90
2022-10-12T13:15:44.718Z,17.60
2022-10-12T13:19:40.080Z,17.80
2022-10-12T13:23:17.109Z,17.90
2022-10-12T13:26:49.150Z,17.90
2022-10-12T13:30:24.654Z,18.00
2022-10-12T13:34:00.683Z,17.80
2022-10-12T13:37:32.580Z,17.30
2022-10-12T13:41:03.154Z,17.30
2022-10-12T13:44:38.384Z,17.60
2022-10-12T13:48:46.371Z,17.70
2022-10-12T13:52:29.639Z,17.90
2022-10-12T13:56:02.681Z,17.90
2022-10-12T13:59:34.434Z,17.70
2022-10-12T14:03:03.762Z,17.90
2022-10-12T14:06:35.164Z,17.90
2022-10-12T14:10:08.570Z,18.00
2022-10-12T14:13:36.411Z,17.70
2022-10-12T14:17:05.302Z,18.00
2022-10-12T14:20:37.407Z,18.10
2022-10-12T14:24:17.145Z,18.10
2022-10-12T14:27:45.453Z,18.00
2022-10-12T14:31:19.006Z,18.00
2022-10-12T14:35:24.706Z,18.20
2022-10-12T14:39:00.249Z,18.30
2022-10-12T14:42:35.044Z,18.30
2022-10-12T14:46:07.079Z,18.30
2022-10-12T14:49:36.423Z,18.40
2022-10-12T14:53:05.041Z,18.30
2022-10-12T14:56:33.978Z,18.20
2022-10-12T15:00:00.757Z,18.30
2022-10-12T15:03:29.815Z,18.20
2022-10-12T15:06:56.736Z,18.00
2022-10-12T15:10:24.253Z,17.90
2022-10-12T15:13:52.720Z,17.90
2022-10-12T15:17:22.803Z,18.00
2022-10-12T15:20:50.332Z,17.80
2022-10-12T15:24:17.130Z,17.70
2022-10-12T15:27:43.834Z,17.80
2022-10-12T15:31:18.613Z,17.50
2022-10-12T15:34:46.348Z,17.70
2022-10-12T15:38:14.245Z,17.50
2022-10-12T15:41:41.436Z,17.50
2022-10-12T15:45:17.177Z,17.20
2022-10-12T15:48:44.491Z,17.10
2022-10-12T15:52:17.641Z,17.20
2022-10-12T15:54:56.813Z,16.70
2022-10-12T15:58:23.516Z,16.80
2022-10-12T16:01:55.981Z,16.80
2022-10-12T16:05:24.174Z,16.50
2022-10-12T16:08:51.344Z,16.40
2022-10-12T16:12:18.634Z,16.30
2022-10-12T16:15:45.466Z,16.40
2022-10-12T16:19:13.521Z,16.40
2022-10-12T16:22:40.896Z,16.30
2022-10-12T16:26:10.900Z,16.20
2022-10-12T16:29:38.810Z,16.20
2022-10-12T16:33:05.550Z,16.00
2022-10-12T16:36:34.430Z,16.00
2022-10-12T16:40:01.455Z,15.30
2022-10-12T16:43:28.319Z,15.50
2022-10-12T16:46:55.865Z,15.50
2022-10-12T16:50:23.756Z,14.80
2022-10-12T16:53:52.100Z,14.90
2022-10-12T16:57:19.942Z,15.10
2022-10-12T17:00:46.932Z,14.90
2022-10-12T17:04:13.799Z,14.90
2022-10-12T17:07:41.026Z,14.40
2022-10-12T17:11:11.294Z,13.80
2022-10-12T17:14:40.450Z,14.20
2022-10-12T17:18:07.274Z,14.10
2022-10-12T17:21:34.542Z,14.40
2022-10-12T17:25:01.771Z,14.50
2022-10-12T17:28:29.921Z,14.10
2022-10-12T17:31:56.885Z,14.10
2022-10-12T17:35:25.171Z,14.00
2022-10-12T17:38:51.909Z,13.40
2022-10-12T17:42:20.565Z,13.40
2022-10-12T17:45:48.925Z,13.10
2022-10-12T17:49:19.768Z,13.40
2022-10-12T17:52:50.394Z,13.40
2022-10-12T17:56:17.166Z,13.50
2022-10-12T17:59:44.221Z,13.70
2022-10-12T18:03:12.624Z,13.70
2022-10-12T18:06:39.453Z,13.60
2022-10-12T18:10:10.040Z,13.20
2022-10-12T18:13:38.018Z,12.90
2022-10-12T18:17:09.524Z,12.30
2022-10-12T18:20:41.027Z,12.30
2022-10-12T18:24:16.121Z,12.50
2022-10-12T18:27:44.409Z,12.80
2022-10-12T18:31:16.877Z,13.10
2022-10-12T18:34:45.079Z,12.90
2022-10-12T18:38:11.843Z,12.10
2022-10-12T18:41:38.633Z,12.00
2022-10-12T18:45:05.699Z,11.70
2022-10-12T18:48:32.473Z,11.80
2022-10-12T18:52:05.014Z,11.90
2022-10-12T18:55:32.147Z,12.20
2022-10-12T18:59:00.224Z,12.50
2022-10-12T19:02:28.942Z,12.60
2022-10-12T19:06:03.359Z,12.50
2022-10-12T19:09:33.015Z,12.40
2022-10-12T19:13:00.384Z,11.90
2022-10-12T19:16:27.675Z,11.60
2022-10-12T19:19:58.634Z,11.70
2022-10-12T19:23:25.405Z,11.90
2022-10-12T19:26:53.796Z,10.90
2022-10-12T19:30:20.509Z,10.60
2022-10-12T19:33:47.334Z,10.80
2022-10-12T19:37:16.118Z,11.40
2022-10-12T19:40:43.694Z,11.20
2022-10-12T19:44:12.635Z,11.40
2022-10-12T19:47:39.927Z,11.60
2022-10-12T19:51:08.136Z,11.10
2022-10-12T19:54:36.336Z,10.50
2022-10-12T19:58:03.239Z,10.10
2022-10-12T20:01:33.392Z,9.80
2022-10-12T20:05:00.514Z,10.00
2022-10-12T20:08:27.412Z,10.40
2022-10-12T20:11:54.352Z,10.80
2022-10-12T20:15:21.348Z,10.80
2022-10-12T20:18:49.822Z,10.50
2022-10-12T20:22:19.908Z,10.00
2022-10-12T20:25:48.237Z,9.50
2022-10-12T20:29:15.925Z,9.50
